createdAt,value
2022-09-17T00:01:28.654Z,98963.84
2022-09-17T00:04:00.250Z,98970.56
2022-09-17T00:06:27.760Z,98977.34
2022-09-17T00:08:55.182Z,98980.34
2022-09-17T00:11:25.273Z,98976.00
2022-09-17T00:13:53.130Z,98968.25
2022-09-17T00:16:31.246Z,98960.66
2022-09-17T00:18:59.308Z,98974.03
2022-09-17T00:21:26.876Z,98969.78
2022-09-17T00:23:58.850Z,98969.00
2022-09-17T00:26:26.665Z,98950.16
2022-09-17T00:28:54.206Z,98961.53
2022-09-17T00:31:21.587Z,98960.50
2022-09-17T00:33:49.335Z,98960.44
2022-09-17T00:36:16.738Z,98962.50
2022-09-17T00:38:44.214Z,98955.88
2022-09-17T00:41:11.803Z,98934.91
2022-09-17T00:43:46.204Z,98927.88
2022-09-17T00:46:29.075Z,98925.59
2022-09-17T00:48:57.434Z,98925.59
2022-09-17T00:51:28.843Z,98923.16
2022-09-17T00:53:56.394Z,98924.06
2022-09-17T00:56:29.738Z,98917.53
2022-09-17T00:58:57.449Z,98913.63
2022-09-17T01:01:24.841Z,98921.25
2022-09-17T01:03:52.272Z,98904.06
2022-09-17T01:06:32.617Z,98904.25
2022-09-17T01:09:25.279Z,98897.78
2022-09-17T01:12:18.278Z,98910.34
2022-09-17T01:15:10.304Z,98918.69
2022-09-17T01:17:43.886Z,98906.66
2022-09-17T01:20:33.973Z,98896.25
2022-09-17T01:23:16.958Z,98907.69
2022-09-17T01:26:21.110Z,98917.84
2022-09-17T01:29:00.936Z,98921.88
2022-09-17T01:31:37.591Z,98925.91
2022-09-17T01:34:31.949Z,98932.44
2022-09-17T01:37:19.176Z,98932.81
2022-09-17T01:39:49.073Z,98937.53
2022-09-17T01:42:26.064Z,98945.25
2022-09-17T01:45:04.853Z,98950.63
2022-09-17T01:47:44.785Z,98957.50
2022-09-17T01:50:14.267Z,98957.47
2022-09-17T01:52:41.857Z,98960.66
2022-09-17T01:55:10.862Z,98961.16
2022-09-17T01:57:52.963Z,98948.31
2022-09-17T02:00:20.571Z,98958.38
2022-09-17T02:03:20.581Z,98953.25
2022-09-17T02:06:12.126Z,98957.69
2022-09-17T02:08:46.765Z,98951.94
2022-09-17T02:11:15.479Z,98944.75
2022-09-17T02:14:05.277Z,98932.75
2022-09-17T02:16:34.717Z,98936.72
2022-09-17T02:19:16.695Z,98935.97
2022-09-17T02:21:47.213Z,98946.03
2022-09-17T02:24:20.576Z,98939.50
2022-09-17T02:27:15.047Z,98937.16
2022-09-17T02:29:42.937Z,98936.63
2022-09-17T02:32:11.200Z,98929.78
2022-09-17T02:34:38.769Z,98925.75
2022-09-17T02:37:06.239Z,98927.75
2022-09-17T02:39:33.844Z,98922.34
2022-09-17T02:42:20.719Z,98922.72
2022-09-17T02:45:16.397Z,98924.84
2022-09-17T02:47:52.977Z,98915.41
2022-09-17T02:50:41.599Z,98911.75
2022-09-17T02:53:17.963Z,98913.16
2022-09-17T02:56:04.154Z,98907.31
2022-09-17T02:58:34.226Z,98900.97
2022-09-17T03:01:06.076Z,98900.41
2022-09-17T03:03:35.522Z,98887.31
2022-09-17T03:06:03.137Z,98887.91
2022-09-17T03:08:34.181Z,98887.69
2022-09-17T03:11:01.496Z,98881.25
2022-09-17T03:13:29.089Z,98872.81
2022-09-17T03:15:56.568Z,98864.78
2022-09-17T03:18:24.000Z,98856.84
2022-09-17T03:20:51.623Z,98855.28
2022-09-17T03:23:19.103Z,98825.47
2022-09-17T03:25:46.866Z,98824.44
2022-09-17T03:28:14.452Z,98818.63
2022-09-17T03:30:43.549Z,98826.47
2022-09-17T03:33:10.907Z,98814.13
2022-09-17T03:35:38.871Z,98815.25
2022-09-17T03:38:06.206Z,98788.06
2022-09-17T03:40:33.631Z,98802.06
2022-09-17T03:43:01.229Z,98792.97
2022-09-17T03:45:28.580Z,98801.91
2022-09-17T03:47:56.901Z,98810.09
2022-09-17T03:50:24.524Z,98797.75
2022-09-17T03:52:51.945Z,98802.72
2022-09-17T03:55:19.335Z,98807.81
2022-09-17T03:57:46.934Z,98815.50
2022-09-17T04:00:17.395Z,98816.16
2022-09-17T04:02:45.304Z,98815.25
2022-09-17T04:05:12.712Z,98829.00
2022-09-17T04:07:41.058Z,98837.66
2022-09-17T04:10:08.803Z,98844.16
2022-09-17T04:12:36.350Z,98835.72
2022-09-17T04:15:04.140Z,98833.41
2022-09-17T04:17:31.884Z,98830.97
2022-09-17T04:19:59.365Z,98821.09
2022-09-17T04:22:26.694Z,98805.03
2022-09-17T04:24:54.402Z,98808.91
2022-09-17T04:27:21.751Z,98810.44
2022-09-17T04:29:49.069Z,98819.66
2022-09-17T04:32:16.698Z,98792.22
2022-09-17T04:34:44.032Z,98806.09
2022-09-17T04:37:11.404Z,98808.62
2022-09-17T04:39:39.513Z,98809.88
2022-09-17T04:42:06.924Z,98800.72
2022-09-17T04:44:34.259Z,98796.34
2022-09-17T04:47:01.870Z,98792.88
2022-09-17T04:49:30.987Z,98796.44
2022-09-17T04:51:58.454Z,98811.78
2022-09-17T04:54:26.047Z,98802.97
2022-09-17T04:56:53.424Z,98798.81
2022-09-17T04:59:20.778Z,98805.50
2022-09-17T05:01:49.476Z,98796.53
2022-09-17T05:04:16.907Z,98797.37
2022-09-17T05:06:44.239Z,98792.28
2022-09-17T05:09:11.852Z,98795.59
2022-09-17T05:11:39.184Z,98800.22
2022-09-17T05:14:06.527Z,98803.56
2022-09-17T05:16:34.162Z,98803.75
2022-09-17T05:19:01.772Z,98817.91
2022-09-17T05:21:29.179Z,98820.78
2022-09-17T05:23:56.795Z,98821.34
2022-09-17T05:26:24.791Z,98827.25
2022-09-17T05:28:52.152Z,98841.69
2022-09-17T05:31:19.847Z,98832.19
2022-09-17T05:33:47.221Z,98840.38
2022-09-17T05:36:14.531Z,98859.34
2022-09-17T05:38:42.169Z,98849.00
2022-09-17T05:41:09.509Z,98844.38
2022-09-17T05:43:36.866Z,98843.97
2022-09-17T05:46:04.847Z,98845.97
2022-09-17T05:48:32.602Z,98857.16
2022-09-17T05:50:59.957Z,98855.78
2022-09-17T05:53:27.585Z,98856.09
2022-09-17T05:55:58.666Z,98857.87
2022-09-17T05:58:26.065Z,98868.03
2022-09-17T06:00:53.968Z,98877.56
2022-09-17T06:03:22.888Z,98875.59
2022-09-17T06:05:58.325Z,98876.25
2022-09-17T06:08:27.082Z,98886.28
2022-09-17T06:10:56.132Z,98898.28
2022-09-17T06:13:26.697Z,98884.16
2022-09-17T06:15:54.209Z,98872.22
2022-09-17T06:18:21.556Z,98866.34
2022-09-17T06:21:02.061Z,98871.13
2022-09-17T06:23:35.224Z,98883.03
2022-09-17T06:26:04.615Z,98891.06
2022-09-17T06:28:32.129Z,98881.69
2022-09-17T06:31:03.587Z,98877.06
2022-09-17T06:33:31.592Z,98875.38
2022-09-17T06:36:16.739Z,98884.38
2022-09-17T06:38:45.190Z,98879.78
2022-09-17T06:41:14.518Z,98897.25
2022-09-17T06:43:41.877Z,98893.25
2022-09-17T06:46:10.258Z,98893.66
2022-09-17T06:48:37.679Z,98908.09
2022-09-17T06:51:06.982Z,98905.03
2022-09-17T06:53:34.598Z,98909.09
2022-09-17T06:56:06.319Z,98903.28
2022-09-17T06:58:37.066Z,98890.78
2022-09-17T07:01:05.029Z,98891.94
2022-09-17T07:03:32.793Z,98892.81
2022-09-17T07:06:00.170Z,98898.28
2022-09-17T07:08:27.791Z,98886.91
2022-09-17T07:10:56.465Z,98891.69
2022-09-17T07:13:24.450Z,98908.44
2022-09-17T07:15:55.710Z,98895.69
2022-09-17T07:18:23.424Z,98872.78
2022-09-17T07:20:55.246Z,98874.03
2022-09-17T07:23:24.338Z,98873.84
2022-09-17T07:25:55.805Z,98869.81
2022-09-17T07:28:23.880Z,98868.91
2022-09-17T07:30:51.489Z,98879.38
2022-09-17T07:33:23.261Z,98883.06
2022-09-17T07:36:00.501Z,98886.50
2022-09-17T07:38:28.341Z,98883.69
2022-09-17T07:40:57.577Z,98882.84
2022-09-17T07:43:28.837Z,98896.06
2022-09-17T07:46:00.555Z,98903.72
2022-09-17T07:48:28.291Z,98905.25
2022-09-17T07:50:56.178Z,98907.75
2022-09-17T07:53:23.548Z,98904.16
2022-09-17T07:55:57.286Z,98894.06
2022-09-17T07:58:29.373Z,98895.56
2022-09-17T08:01:09.985Z,98892.16
2022-09-17T08:03:38.500Z,98901.53
2022-09-17T08:06:07.519Z,98903.84
2022-09-17T08:08:35.772Z,98923.28
2022-09-17T08:11:04.491Z,98935.47
2022-09-17T08:13:32.054Z,98937.62
2022-09-17T08:16:00.841Z,98940.59
2022-09-17T08:18:28.666Z,98936.38
2022-09-17T08:20:59.549Z,98932.19
2022-09-17T08:23:27.250Z,98936.72
2022-09-17T08:25:55.463Z,98947.41
2022-09-17T08:28:23.882Z,98953.00
2022-09-17T08:30:51.781Z,98946.19
2022-09-17T08:33:19.544Z,98954.81
2022-09-17T08:35:53.698Z,98961.25
2022-09-17T08:38:21.393Z,98959.41
2022-09-17T08:41:00.786Z,98957.22
2022-09-17T08:43:28.381Z,98949.09
2022-09-17T08:45:55.781Z,98936.63
2022-09-17T08:48:23.109Z,98925.66
2022-09-17T08:50:51.165Z,98923.53
2022-09-17T08:53:29.196Z,98911.75
2022-09-17T08:56:13.844Z,98925.25
2022-09-17T08:59:22.176Z,98915.56
2022-09-17T09:02:00.817Z,98939.03
2022-09-17T09:04:34.285Z,98925.13
2022-09-17T09:07:10.174Z,98945.81
2022-09-17T09:09:39.957Z,98946.84
2022-09-17T09:12:22.737Z,98949.94
2022-09-17T09:15:05.679Z,98944.00
2022-09-17T09:17:42.205Z,98941.75
2022-09-17T09:20:45.359Z,98942.28
2022-09-17T09:23:18.666Z,98932.75
2022-09-17T09:25:59.398Z,98948.87
2022-09-17T09:28:33.151Z,98941.28
2022-09-17T09:31:06.597Z,98931.84
2022-09-17T09:33:37.951Z,98931.59
2022-09-17T09:36:11.702Z,98943.22
2022-09-17T09:39:01.788Z,98935.19
2022-09-17T09:41:32.961Z,98944.31
2022-09-17T09:44:04.720Z,98952.41
2022-09-17T09:46:50.926Z,98947.63
2022-09-17T09:49:31.089Z,98935.06
2022-09-17T09:52:20.986Z,98936.75
2022-09-17T09:55:08.689Z,98946.72
2022-09-17T09:57:43.891Z,98959.34
2022-09-17T10:00:37.685Z,98948.56
2022-09-17T10:03:20.139Z,98957.16
2022-09-17T10:05:59.284Z,98940.94
2022-09-17T10:08:27.603Z,98942.50
2022-09-17T10:11:05.712Z,98939.75
2022-09-17T10:13:37.402Z,98934.00
2022-09-17T10:16:17.908Z,98925.56
2022-09-17T10:18:49.069Z,98920.31
2022-09-17T10:21:36.406Z,98921.22
2022-09-17T10:24:04.486Z,98912.06
2022-09-17T10:26:35.792Z,98892.88
2022-09-17T10:29:04.964Z,98893.53
2022-09-17T10:31:54.786Z,98881.97
2022-09-17T10:34:23.118Z,98883.09
2022-09-17T10:36:50.784Z,98913.00
2022-09-17T10:39:44.421Z,98902.56
2022-09-17T10:42:11.860Z,98914.75
2022-09-17T10:44:39.445Z,98905.41
2022-09-17T10:47:29.482Z,98894.84
2022-09-17T10:50:20.826Z,98882.25
2022-09-17T10:52:49.646Z,98873.81
2022-09-17T10:55:37.575Z,98876.97
2022-09-17T10:58:07.940Z,98840.50
2022-09-17T11:00:47.882Z,98833.50
2022-09-17T11:03:27.018Z,98832.50
2022-09-17T11:06:15.414Z,98851.25
2022-09-17T11:08:54.770Z,98868.88
2022-09-17T11:11:45.788Z,98879.78
2022-09-17T11:14:35.874Z,98885.53
2022-09-17T11:17:40.951Z,98879.06
2022-09-17T11:20:14.250Z,98873.22
2022-09-17T11:23:15.621Z,98886.97
2022-09-17T11:26:01.286Z,98917.78
2022-09-17T11:29:11.260Z,98916.56
2022-09-17T11:32:14.071Z,98914.81
2022-09-17T11:34:53.939Z,98885.44
2022-09-17T11:37:24.308Z,98884.09
2022-09-17T11:39:57.339Z,98870.44
2022-09-17T11:42:28.302Z,98880.56
2022-09-17T11:45:10.891Z,98874.56
2022-09-17T11:48:00.291Z,98848.34
2022-09-17T11:50:38.084Z,98846.88
2022-09-17T11:53:23.567Z,98824.50
2022-09-17T11:56:00.329Z,98815.22
2022-09-17T11:58:40.272Z,98817.94
2022-09-17T12:01:32.585Z,98800.12
2022-09-17T12:04:01.771Z,98791.50
2022-09-17T12:06:42.002Z,98778.84
2022-09-17T12:09:14.211Z,98794.56
2022-09-17T12:11:45.858Z,98776.38
2022-09-17T12:14:26.728Z,98780.31
2022-09-17T12:16:57.642Z,98790.41
2022-09-17T12:19:41.078Z,98781.47
2022-09-17T12:22:12.375Z,98758.66
2022-09-17T12:24:41.572Z,98755.09
2022-09-17T12:27:17.067Z,98754.97
2022-09-17T12:29:47.690Z,98754.22
2022-09-17T12:32:22.467Z,98740.50
2022-09-17T12:35:02.961Z,98737.53
2022-09-17T12:37:52.164Z,98742.69
2022-09-17T12:40:35.017Z,98730.44
2022-09-17T12:43:36.669Z,98718.94
2022-09-17T12:46:07.368Z,98714.53
2022-09-17T12:48:37.668Z,98732.69
2022-09-17T12:51:05.335Z,98746.53
2022-09-17T12:53:36.915Z,98752.31
2022-09-17T12:56:27.288Z,98766.09
2022-09-17T12:59:00.357Z,98764.06
2022-09-17T13:01:41.542Z,98768.41
2022-09-17T13:04:16.282Z,98756.59
2022-09-17T13:06:59.224Z,98762.94
2022-09-17T13:09:35.513Z,98763.31
2022-09-17T13:12:04.694Z,98745.47
2022-09-17T13:15:09.538Z,98755.50
2022-09-17T13:17:52.413Z,98726.97
2022-09-17T13:20:32.884Z,98727.72
2022-09-17T13:23:00.599Z,98724.38
2022-09-17T13:25:27.964Z,98722.78
2022-09-17T13:28:09.167Z,98722.69
2022-09-17T13:30:59.430Z,98711.59
2022-09-17T13:33:50.407Z,98712.22
2022-09-17T13:36:33.071Z,98712.59
2022-09-17T13:39:02.233Z,98692.00
2022-09-17T13:41:30.169Z,98691.91
2022-09-17T13:43:57.894Z,98701.75
2022-09-17T13:46:25.821Z,98714.94
2022-09-17T13:48:56.391Z,98707.78
2022-09-17T13:51:32.807Z,98717.31
2022-09-17T13:54:04.482Z,98698.50
2022-09-17T13:56:34.804Z,98694.91
2022-09-17T13:59:10.501Z,98709.38
2022-09-17T14:02:17.430Z,98711.66
2022-09-17T14:04:45.361Z,98721.56
2022-09-17T14:07:21.104Z,98727.06
2022-09-17T14:09:58.429Z,98735.94
2022-09-17T14:13:00.983Z,98727.69
2022-09-17T14:15:40.442Z,98736.16
2022-09-17T14:18:29.295Z,98735.56
2022-09-17T14:21:10.064Z,98739.78
2022-09-17T14:23:49.517Z,98739.44
2022-09-17T14:26:24.952Z,98745.75
2022-09-17T14:29:00.561Z,98756.13
2022-09-17T14:31:32.105Z,98746.69
2022-09-17T14:34:01.583Z,98756.25
2022-09-17T14:36:35.752Z,98760.94
2022-09-17T14:39:03.226Z,98769.06
2022-09-17T14:41:35.604Z,98766.13
2022-09-17T14:44:08.347Z,98755.56
2022-09-17T14:46:36.708Z,98771.97
2022-09-17T14:49:23.031Z,98755.16
2022-09-17T14:51:51.546Z,98749.19
2022-09-17T14:54:36.010Z,98746.84
2022-09-17T14:57:10.313Z,98748.28
2022-09-17T14:59:59.604Z,98747.19
2022-09-17T15:02:36.242Z,98744.50
2022-09-17T15:05:36.769Z,98743.91
2022-09-17T15:08:10.405Z,98750.63
2022-09-17T15:10:52.593Z,98747.59
2022-09-17T15:13:24.192Z,98752.13
2022-09-17T15:16:07.720Z,98750.78
2022-09-17T15:18:38.246Z,98748.00
2022-09-17T15:21:15.112Z,98741.69
2022-09-17T15:23:42.718Z,98737.81
2022-09-17T15:26:10.048Z,98727.53
2022-09-17T15:28:39.381Z,98709.69
2022-09-17T15:31:10.152Z,98705.69
2022-09-17T15:33:37.909Z,98699.41
2022-09-17T15:36:15.875Z,98705.28
2022-09-17T15:38:44.612Z,98715.00
2022-09-17T15:41:33.803Z,98719.09
2022-09-17T15:44:31.168Z,98715.94
2022-09-17T15:47:37.785Z,98713.13
2022-09-17T15:50:16.431Z,98695.22
2022-09-17T15:52:44.080Z,98705.72
2022-09-17T15:55:34.602Z,98702.72
2022-09-17T15:58:04.607Z,98716.41
2022-09-17T16:00:31.966Z,98721.06
2022-09-17T16:03:16.621Z,98702.47
2022-09-17T16:05:47.330Z,98710.81
2022-09-17T16:08:19.285Z,98697.44
2022-09-17T16:10:46.668Z,98701.16
2022-09-17T16:13:14.033Z,98704.63
2022-09-17T16:15:41.740Z,98700.00
2022-09-17T16:18:12.587Z,98683.88
2022-09-17T16:20:39.912Z,98684.75
2022-09-17T16:23:07.576Z,98676.69
2022-09-17T16:25:36.625Z,98675.13
2022-09-17T16:28:10.417Z,98670.66
2022-09-17T16:30:43.573Z,98669.44
2022-09-17T16:33:12.193Z,98661.78
2022-09-17T16:35:40.007Z,98671.94
2022-09-17T16:38:07.544Z,98660.41
2022-09-17T16:40:35.377Z,98664.91
2022-09-17T16:43:04.159Z,98653.94
2022-09-17T16:45:32.897Z,98663.06
2022-09-17T16:48:00.363Z,98677.94
2022-09-17T16:50:28.075Z,98684.53
2022-09-17T16:52:57.449Z,98683.97
2022-09-17T16:55:26.044Z,98670.22
2022-09-17T16:57:53.878Z,98678.66
2022-09-17T17:00:21.281Z,98669.03
2022-09-17T17:02:56.157Z,98674.37
2022-09-17T17:05:25.034Z,98692.44
2022-09-17T17:07:54.950Z,98703.09
2022-09-17T17:10:24.300Z,98690.37
2022-09-17T17:12:52.858Z,98691.06
2022-09-17T17:15:21.644Z,98686.19
2022-09-17T17:17:49.293Z,98669.78
2022-09-17T17:20:17.905Z,98663.50
2022-09-17T17:22:47.035Z,98657.00
2022-09-17T17:25:14.672Z,98654.25
2022-09-17T17:27:42.309Z,98666.09
2022-09-17T17:30:17.852Z,98677.66
2022-09-17T17:32:47.016Z,98666.22
2022-09-17T17:35:14.744Z,98671.94
2022-09-17T17:37:42.533Z,98678.75
2022-09-17T17:40:10.403Z,98682.50
2022-09-17T17:42:39.442Z,98688.41
2022-09-17T17:45:07.295Z,98679.16
2022-09-17T17:47:35.688Z,98676.09
2022-09-17T17:50:03.502Z,98692.16
2022-09-17T17:52:31.915Z,98705.44
2022-09-17T17:54:59.536Z,98713.91
2022-09-17T17:57:26.880Z,98720.69
2022-09-17T17:59:54.249Z,98735.22
2022-09-17T18:02:21.967Z,98738.13
2022-09-17T18:04:49.681Z,98728.00
2022-09-17T18:07:17.005Z,98739.00
2022-09-17T18:09:44.567Z,98744.03
2022-09-17T18:12:12.174Z,98736.28
2022-09-17T18:14:39.502Z,98747.81
2022-09-17T18:17:06.819Z,98749.94
2022-09-17T18:19:34.451Z,98747.16
2022-09-17T18:22:01.837Z,98743.41
2022-09-17T18:24:29.185Z,98744.81
2022-09-17T18:26:56.770Z,98743.66
2022-09-17T18:29:24.141Z,98749.38
2022-09-17T18:31:51.546Z,98744.97
2022-09-17T18:34:21.621Z,98752.66
2022-09-17T18:36:51.365Z,98743.28
2022-09-17T18:42:08.789Z,98753.09
2022-09-17T18:44:36.500Z,98751.28
2022-09-17T18:47:03.860Z,98741.47
2022-09-17T18:49:31.181Z,98742.38
2022-09-17T18:51:58.795Z,98735.44
2022-09-17T18:54:26.156Z,98742.25
2022-09-17T18:56:53.487Z,98752.25
2022-09-17T18:59:22.281Z,98736.69
2022-09-17T19:01:50.795Z,98730.16
2022-09-17T19:04:18.228Z,98722.38
2022-09-17T19:06:46.799Z,98732.56
2022-09-17T19:09:16.337Z,98727.13
2022-09-17T19:11:43.649Z,98736.13
2022-09-17T19:14:11.778Z,98746.13
2022-09-17T19:16:39.149Z,98739.72
2022-09-17T19:19:06.591Z,98754.72
2022-09-17T19:21:34.178Z,98761.75
2022-09-17T19:24:03.373Z,98771.94
2022-09-17T19:26:31.808Z,98769.66
2022-09-17T19:29:00.460Z,98781.16
2022-09-17T19:31:28.028Z,98764.25
2022-09-17T19:33:56.401Z,98766.28
2022-09-17T19:36:24.361Z,98774.16
2022-09-17T19:38:52.123Z,98771.97
2022-09-17T19:41:20.322Z,98773.44
2022-09-17T19:43:48.168Z,98774.44
2022-09-17T19:46:17.886Z,98773.53
2022-09-17T19:48:53.039Z,98773.81
2022-09-17T19:51:21.056Z,98773.91
2022-09-17T19:53:48.480Z,98776.38
2022-09-17T19:56:17.207Z,98769.25
2022-09-17T19:58:44.899Z,98780.19
2022-09-17T20:01:13.274Z,98775.66
2022-09-17T20:03:41.652Z,98773.22
2022-09-17T20:06:11.153Z,98774.00
2022-09-17T20:08:47.209Z,98773.53
2022-09-17T20:11:15.192Z,98778.16
2022-09-17T20:13:42.582Z,98778.12
2022-09-17T20:16:13.356Z,98786.34
2022-09-17T20:18:41.372Z,98774.44
2022-09-17T20:21:15.805Z,98777.53
2022-09-17T20:23:43.827Z,98782.47
2022-09-17T20:26:12.057Z,98780.22
2022-09-17T20:28:39.819Z,98789.19
2022-09-17T20:31:10.652Z,98783.88
2022-09-17T20:33:38.008Z,98786.09
2022-09-17T20:36:15.709Z,98794.88
2022-09-17T20:41:34.907Z,98813.22
2022-09-17T20:44:02.681Z,98810.19
2022-09-17T20:46:30.106Z,98809.94
2022-09-17T20:48:58.230Z,98811.63
2022-09-17T20:51:27.532Z,98810.84
2022-09-17T20:53:55.340Z,98807.75
2022-09-17T20:56:24.344Z,98808.97
2022-09-17T20:59:02.806Z,98814.91
2022-09-17T21:01:32.944Z,98811.22
2022-09-17T21:04:01.054Z,98811.34
2022-09-17T21:06:30.119Z,98819.41
2022-09-17T21:08:57.515Z,98813.19
2022-09-17T21:11:25.105Z,98812.72
2022-09-17T21:13:52.717Z,98817.69
2022-09-17T21:16:20.936Z,98823.59
2022-09-17T21:18:48.571Z,98814.00
2022-09-17T21:21:17.816Z,98814.78
2022-09-17T21:23:45.176Z,98823.25
2022-09-17T21:26:17.110Z,98824.00
2022-09-17T21:28:45.285Z,98819.81
2022-09-17T21:31:17.641Z,98816.88
2022-09-17T21:33:45.556Z,98838.94
2022-09-17T21:36:14.989Z,98827.28
2022-09-17T21:38:42.345Z,98825.97
2022-09-17T21:41:11.992Z,98832.63
2022-09-17T21:43:39.934Z,98835.22
2022-09-17T21:46:08.098Z,98846.84
2022-09-17T21:48:36.793Z,98834.50
2022-09-17T21:51:08.661Z,98832.00
2022-09-17T21:53:36.021Z,98842.22
2022-09-17T21:56:13.552Z,98849.59
2022-09-17T21:58:41.272Z,98857.81
2022-09-17T22:01:13.253Z,98859.19
2022-09-17T22:03:41.220Z,98859.66
2022-09-17T22:06:11.057Z,98861.25
2022-09-17T22:08:38.417Z,98858.97
2022-09-17T22:11:16.529Z,98861.22
2022-09-17T22:14:08.952Z,98862.50
2022-09-17T22:16:41.649Z,98861.53
2022-09-17T22:19:09.502Z,98863.88
2022-09-17T22:21:38.465Z,98861.38
2022-09-17T22:24:06.219Z,98859.03
2022-09-17T22:26:35.445Z,98860.75
2022-09-17T22:29:08.312Z,98865.13
2022-09-17T22:31:35.729Z,98875.38
2022-09-17T22:34:07.164Z,98870.66
2022-09-17T22:36:34.541Z,98887.25
2022-09-17T22:39:01.915Z,98874.75
2022-09-17T22:41:31.153Z,98893.09
2022-09-17T22:43:59.190Z,98902.81
2022-09-17T22:46:27.955Z,98921.53
2022-09-17T22:48:55.874Z,98903.94
2022-09-17T22:51:23.758Z,98896.78
2022-09-17T22:53:51.182Z,98899.28
2022-09-17T22:56:19.740Z,98906.28
2022-09-17T22:58:47.334Z,98895.06
2022-09-17T23:01:18.956Z,98896.78
2022-09-17T23:03:47.468Z,98895.81
2022-09-17T23:06:16.479Z,98893.34
2022-09-17T23:08:43.885Z,98885.28
2022-09-17T23:11:33.040Z,98889.91
2022-09-17T23:14:02.358Z,98903.59
2022-09-17T23:16:34.675Z,98885.84
2022-09-17T23:19:02.020Z,98893.78
2022-09-17T23:21:29.801Z,98899.22
2022-09-17T23:23:57.252Z,98889.13
2022-09-17T23:26:25.222Z,98891.53
2022-09-17T23:28:52.838Z,98892.16
2022-09-17T23:31:26.806Z,98893.75
2022-09-17T23:33:55.171Z,98899.97
2022-09-17T23:36:24.174Z,98899.78
2022-09-17T23:38:51.704Z,98901.31
2022-09-17T23:41:36.262Z,98899.78
2022-09-17T23:44:05.357Z,98897.00
2022-09-17T23:46:34.179Z,98899.38
2022-09-17T23:49:02.359Z,98900.09
2022-09-17T23:51:30.998Z,98899.22
2022-09-17T23:53:58.656Z,98874.41
2022-09-17T23:56:26.557Z,98895.75
2022-09-17T23:58:54.530Z,98906.09
